Time;durP1;ratioP1;P1;durP2;ratioP2;P2;SDS_P1;SDS_P2;PMS_P1;PMS_P2;Temp;Humidity;BMP_temperature;BMP_pressure;BME280_temperature;BME280_humidity;BME280_pressure;Samples;Min_cycle;Max_cycle;Signal;HPM_P1;HPM_P2
2021/08/15 00:01:58;;;;;;;14.80;5.10;;;22.90;97.60;;;;;;4870899;29;20132;-77
2021/08/15 00:04:24;;;;;;;18.70;5.10;;;22.80;97.20;;;;;;4896201;29;20451;-77
2021/08/15 00:06:49;;;;;;;13.93;5.10;;;22.80;97.00;;;;;;4890456;29;20101;-77
2021/08/15 00:09:15;;;;;;;13.55;4.05;;;22.80;96.90;;;;;;4877025;29;20045;-78
2021/08/15 00:11:41;;;;;;;17.27;5.03;;;22.80;96.80;;;;;;4882713;29;20500;-78
2021/08/15 00:14:06;;;;;;;15.18;5.05;;;22.70;96.70;;;;;;4896100;29;20037;-77
2021/08/15 00:16:32;;;;;;;13.65;4.47;;;22.70;96.70;;;;;;4877970;29;20051;-77
2021/08/15 00:19:04;;;;;;;19.88;5.20;;;22.70;96.80;;;;;;4879656;29;20041;-78
2021/08/15 00:21:31;;;;;;;12.02;4.80;;;22.70;96.90;;;;;;4877648;29;20053;-78
2021/08/15 00:23:57;;;;;;;18.83;5.45;;;22.70;96.70;;;;;;4891569;29;20032;-77
2021/08/15 00:26:22;;;;;;;16.65;5.40;;;22.60;97.00;;;;;;4879012;29;20053;-77
2021/08/15 00:28:48;;;;;;;24.92;5.65;;;22.60;97.30;;;;;;4883056;29;20587;-77
2021/08/15 00:31:13;;;;;;;18.48;5.07;;;22.60;97.00;;;;;;4876750;29;20049;-77
2021/08/15 00:33:39;;;;;;;19.65;4.82;;;22.60;97.00;;;;;;4881630;29;20135;-77
2021/08/15 00:36:05;;;;;;;13.50;4.05;;;22.60;96.20;;;;;;4877380;29;20443;-78
2021/08/15 00:38:31;;;;;;;13.70;4.00;;;22.50;95.80;;;;;;4863287;29;20056;-78
2021/08/15 00:40:56;;;;;;;9.80;3.95;;;22.40;96.00;;;;;;4877195;29;20136;-78
2021/08/15 00:43:22;;;;;;;18.08;5.07;;;22.40;96.70;;;;;;4873697;29;20043;-78
2021/08/15 00:45:48;;;;;;;14.65;4.85;;;22.40;96.20;;;;;;4876920;29;20670;-78
2021/08/15 00:48:14;;;;;;;13.63;4.90;;;22.40;96.20;;;;;;4878499;29;20044;-77
2021/08/15 00:50:40;;;;;;;16.80;4.78;;;22.40;96.30;;;;;;4878647;29;20060;-77
2021/08/15 00:53:06;;;;;;;14.68;4.55;;;22.30;95.80;;;;;;4895476;29;20048;-77
2021/08/15 00:55:35;;;;;;;22.15;4.43;;;22.20;95.90;;;;;;4895198;29;20055;-78
2021/08/15 00:58:06;;;;;;;12.27;5.28;;;22.10;96.10;;;;;;4892143;29;20121;-77
2021/08/15 01:00:32;;;;;;;14.95;4.30;;;22.20;96.10;;;;;;4885067;29;20107;-77
2021/08/15 01:02:59;;;;;;;18.60;5.00;;;22.00;96.70;;;;;;4872149;29;20052;-78
2021/08/15 01:05:25;;;;;;;14.98;5.10;;;22.00;97.20;;;;;;4859742;29;20733;-77
2021/08/15 01:07:51;;;;;;;11.05;4.93;;;22.10;97.40;;;;;;4894260;29;20400;-77
2021/08/15 01:10:17;;;;;;;11.85;4.55;;;22.10;97.20;;;;;;4878153;29;20040;-77
2021/08/15 01:12:47;;;;;;;15.10;4.32;;;22.10;97.00;;;;;;4894794;29;20047;-77
2021/08/15 01:15:14;;;;;;;14.85;4.60;;;22.00;96.70;;;;;;4894472;29;20032;-77
2021/08/15 01:17:40;;;;;;;12.23;3.83;;;21.90;96.30;;;;;;4877248;29;20139;-78
2021/08/15 01:20:06;;;;;;;17.65;4.40;;;21.90;96.80;;;;;;4879482;29;20144;-77
2021/08/15 01:22:40;;;;;;;17.27;4.95;;;21.90;96.70;;;;;;4862635;29;20048;-78
2021/08/15 01:25:07;;;;;;;17.50;5.10;;;21.80;96.70;;;;;;4876964;29;20048;-78
2021/08/15 01:27:37;;;;;;;19.88;4.93;;;21.70;96.90;;;;;;4883615;29;20057;-78
2021/08/15 01:30:04;;;;;;;17.50;4.68;;;21.70;97.10;;;;;;4883441;29;20076;-77
2021/08/15 01:32:30;;;;;;;16.23;3.95;;;21.70;97.20;;;;;;4876390;29;20053;-78
2021/08/15 01:34:56;;;;;;;18.38;4.55;;;21.60;97.40;;;;;;4879742;29;20060;-77
2021/08/15 01:37:23;;;;;;;12.05;3.85;;;21.50;97.00;;;;;;4878677;29;20090;-78
2021/08/15 01:39:49;;;;;;;15.55;3.95;;;21.50;97.20;;;;;;4888896;29;20044;-77
2021/08/15 01:42:14;;;;;;;14.25;4.22;;;21.60;97.00;;;;;;4885310;29;20048;-78
2021/08/15 01:44:40;;;;;;;13.23;3.65;;;21.50;97.00;;;;;;4883305;29;20432;-78
2021/08/15 01:47:05;;;;;;;13.27;3.83;;;21.50;97.00;;;;;;4883884;29;20048;-77
2021/08/15 01:49:31;;;;;;;14.35;4.00;;;21.50;97.00;;;;;;4891396;29;20045;-78
2021/08/15 01:51:57;;;;;;;16.65;4.65;;;21.30;97.60;;;;;;4876405;29;20057;-77
2021/08/15 01:54:22;;;;;;;21.70;4.28;;;21.30;97.30;;;;;;4874939;29;20045;-77
2021/08/15 01:56:48;;;;;;;12.63;3.72;;;21.30;97.50;;;;;;4886448;29;20051;-77
2021/08/15 01:59:14;;;;;;;20.25;4.68;;;21.30;98.20;;;;;;4894115;29;20128;-77
2021/08/15 02:01:39;;;;;;;14.00;4.30;;;21.30;97.90;;;;;;4881867;29;20048;-77
2021/08/15 02:04:05;;;;;;;18.77;5.20;;;21.20;97.90;;;;;;4875687;29;20085;-77
2021/08/15 02:06:30;;;;;;;19.98;5.68;;;21.20;97.50;;;;;;4858142;29;20055;-77
2021/08/15 02:08:56;;;;;;;13.48;4.80;;;21.30;97.40;;;;;;4875663;29;20084;-78
2021/08/15 02:11:22;;;;;;;20.55;4.28;;;21.20;97.70;;;;;;4878168;29;20041;-77
2021/08/15 02:13:48;;;;;;;17.08;4.10;;;21.20;97.80;;;;;;4894085;29;20045;-77
2021/08/15 02:16:14;;;;;;;12.63;4.80;;;21.20;97.70;;;;;;4893075;29;20043;-77
2021/08/15 02:18:40;;;;;;;14.90;4.45;;;21.10;97.70;;;;;;4875634;29;20045;-78
2021/08/15 02:21:05;;;;;;;11.68;4.00;;;21.10;97.80;;;;;;4858166;29;20068;-77
2021/08/15 02:23:31;;;;;;;11.55;4.75;;;21.10;98.10;;;;;;4888079;29;20687;-77
2021/08/15 02:25:57;;;;;;;13.20;4.10;;;21.10;98.30;;;;;;4893025;29;20120;-77
2021/08/15 02:28:23;;;;;;;14.00;4.60;;;21.10;98.20;;;;;;4895086;29;20496;-77
2021/08/15 02:30:48;;;;;;;15.23;4.93;;;21.00;98.10;;;;;;4902412;29;20183;-78
2021/08/15 02:33:14;;;;;;;15.02;4.88;;;21.00;98.40;;;;;;4888784;29;20049;-78
2021/08/15 02:35:40;;;;;;;10.60;3.90;;;21.00;98.30;;;;;;4893961;29;20055;-77
2021/08/15 02:38:06;;;;;;;16.63;4.97;;;20.90;98.50;;;;;;4894346;29;20124;-78
2021/08/15 02:40:32;;;;;;;10.27;4.25;;;20.90;98.40;;;;;;4893671;29;20064;-77
2021/08/15 02:42:57;;;;;;;14.18;3.88;;;20.90;98.40;;;;;;4876923;29;20040;-77
2021/08/15 02:45:25;;;;;;;14.20;4.22;;;20.90;98.50;;;;;;4893105;29;20040;-77
2021/08/15 02:47:52;;;;;;;15.00;3.58;;;20.80;98.30;;;;;;4893785;29;20037;-78
2021/08/15 02:50:18;;;;;;;11.75;4.03;;;20.80;98.80;;;;;;4893011;29;20156;-77
2021/08/15 02:52:44;;;;;;;12.25;3.50;;;20.80;98.50;;;;;;4893862;29;20041;-78
2021/08/15 02:55:11;;;;;;;13.07;4.07;;;20.80;98.60;;;;;;4896571;29;20465;-77
2021/08/15 02:57:36;;;;;;;18.70;4.60;;;20.80;98.60;;;;;;4896963;29;20033;-78
2021/08/15 03:00:05;;;;;;;15.27;4.57;;;20.70;98.60;;;;;;4897705;29;20040;-78
2021/08/15 03:02:31;;;;;;;14.88;5.13;;;20.70;98.80;;;;;;4897301;29;20039;-77
2021/08/15 03:04:56;;;;;;;13.57;4.70;;;20.60;98.60;;;;;;4897251;29;20396;-77
2021/08/15 03:07:23;;;;;;;15.52;3.75;;;20.60;98.90;;;;;;4879909;29;20063;-77
2021/08/15 03:09:48;;;;;;;11.65;4.15;;;20.60;99.40;;;;;;4880440;29;20048;-77
2021/08/15 03:12:14;;;;;;;17.95;4.47;;;20.50;99.10;;;;;;4879619;29;20056;-77
2021/08/15 03:14:40;;;;;;;16.42;4.18;;;20.30;99.10;;;;;;4896831;29;20068;-78
2021/08/15 03:17:07;;;;;;;17.80;4.60;;;20.30;99.10;;;;;;4889148;29;20222;-77
2021/08/15 03:19:34;;;;;;;21.80;4.97;;;20.30;99.00;;;;;;4878728;29;20916;-77
2021/08/15 03:21:59;;;;;;;17.60;4.50;;;20.40;98.80;;;;;;4861303;29;20067;-78
2021/08/15 03:24:25;;;;;;;10.45;4.18;;;20.20;99.10;;;;;;4887225;29;20513;-77
2021/08/15 03:26:50;;;;;;;14.45;4.60;;;20.20;99.20;;;;;;4897163;29;20373;-77
2021/08/15 03:29:17;;;;;;;12.80;4.25;;;20.30;99.20;;;;;;4896083;29;20127;-77
2021/08/15 03:31:45;;;;;;;15.52;4.68;;;20.20;99.50;;;;;;4896682;29;20131;-77
2021/08/15 03:34:11;;;;;;;12.65;4.60;;;20.20;99.60;;;;;;4876068;29;20406;-77
2021/08/15 03:36:37;;;;;;;12.77;4.22;;;20.10;99.30;;;;;;4878450;29;20100;-77
2021/08/15 03:39:04;;;;;;;17.88;4.47;;;20.10;98.90;;;;;;4877453;29;20073;-77
2021/08/15 03:41:30;;;;;;;13.93;4.90;;;20.20;98.50;;;;;;4877920;29;20049;-78
2021/08/15 03:43:56;;;;;;;19.08;4.78;;;20.20;98.70;;;;;;4877433;29;20045;-77
2021/08/15 03:46:22;;;;;;;17.00;4.40;;;20.20;98.20;;;;;;4887386;29;20080;-78
2021/08/15 03:48:47;;;;;;;19.85;5.10;;;20.40;98.20;;;;;;4879485;29;20041;-77
2021/08/15 03:51:13;;;;;;;16.08;4.75;;;20.40;98.60;;;;;;4879282;29;20571;-78
2021/08/15 03:53:39;;;;;;;14.23;3.65;;;20.20;99.10;;;;;;4879264;29;20048;-78
2021/08/15 03:56:04;;;;;;;13.48;4.07;;;20.20;99.00;;;;;;4878606;29;20500;-77
2021/08/15 03:58:30;;;;;;;11.88;3.75;;;20.20;98.90;;;;;;4885197;29;20124;-77
2021/08/15 04:00:56;;;;;;;15.25;4.63;;;20.10;98.90;;;;;;4879800;29;20041;-77
2021/08/15 04:03:22;;;;;;;14.88;4.30;;;20.10;98.70;;;;;;4876163;29;20052;-77
2021/08/15 04:05:48;;;;;;;15.45;5.40;;;20.10;98.60;;;;;;4882435;29;20048;-77
2021/08/15 04:08:14;;;;;;;14.52;4.50;;;20.10;98.20;;;;;;4896206;29;20115;-78
2021/08/15 04:10:39;;;;;;;15.23;4.82;;;20.10;98.10;;;;;;4896509;29;20115;-77
2021/08/15 04:13:05;;;;;;;14.88;4.55;;;20.10;97.50;;;;;;4879592;29;20067;-78
2021/08/15 04:15:31;;;;;;;16.02;4.15;;;20.20;97.40;;;;;;4877519;29;20837;-77
2021/08/15 04:17:57;;;;;;;11.10;3.95;;;20.20;98.30;;;;;;4877134;29;20045;-78
2021/08/15 04:20:23;;;;;;;16.27;4.38;;;20.20;98.60;;;;;;4877418;29;20037;-77
2021/08/15 04:22:49;;;;;;;11.02;3.97;;;20.20;98.90;;;;;;4876550;29;20051;-78
2021/08/15 04:25:15;;;;;;;14.82;4.15;;;20.00;99.40;;;;;;4877285;29;20033;-77
2021/08/15 04:27:41;;;;;;;19.05;5.32;;;20.00;98.40;;;;;;4885904;29;20052;-77
2021/08/15 04:30:09;;;;;;;17.83;4.60;;;20.10;98.20;;;;;;4896288;29;20041;-79
2021/08/15 04:32:35;;;;;;;14.93;4.53;;;20.10;97.90;;;;;;4895139;29;20076;-79
2021/08/15 04:35:01;;;;;;;13.98;5.03;;;20.20;97.80;;;;;;4895882;29;20039;-80
2021/08/15 04:37:26;;;;;;;13.40;4.50;;;20.10;98.20;;;;;;4890944;29;20037;-79
2021/08/15 04:39:53;;;;;;;16.20;4.47;;;20.10;98.90;;;;;;4877005;29;20065;-80
2021/08/15 04:42:19;;;;;;;19.15;5.35;;;20.10;99.10;;;;;;4878523;29;20041;-79
2021/08/15 04:44:45;;;;;;;14.40;4.28;;;20.10;99.10;;;;;;4895664;29;20116;-79
2021/08/15 04:47:11;;;;;;;12.57;4.25;;;20.10;99.00;;;;;;4895349;29;20056;-79
2021/08/15 04:49:37;;;;;;;20.48;4.47;;;20.10;99.30;;;;;;4894445;29;20040;-80
2021/08/15 04:52:03;;;;;;;12.15;5.07;;;20.00;99.10;;;;;;4895858;29;20076;-80
2021/08/15 04:54:29;;;;;;;17.20;4.05;;;20.00;99.30;;;;;;4876333;29;20120;-80
2021/08/15 04:56:55;;;;;;;21.35;4.95;;;19.90;99.50;;;;;;4880320;29;20120;-79
2021/08/15 04:59:21;;;;;;;15.23;4.65;;;20.00;99.40;;;;;;4888130;29;20087;-77
2021/08/15 05:01:47;;;;;;;20.27;4.95;;;20.00;99.50;;;;;;4869009;29;20595;-78
2021/08/15 05:04:12;;;;;;;19.95;4.88;;;20.10;99.40;;;;;;4883289;29;20111;-77
2021/08/15 05:06:38;;;;;;;20.67;4.80;;;20.10;99.50;;;;;;4881865;29;20421;-78
2021/08/15 05:09:04;;;;;;;13.23;4.57;;;20.00;99.50;;;;;;4871884;29;20055;-77
2021/08/15 05:11:30;;;;;;;17.40;4.13;;;20.00;99.70;;;;;;4886797;29;20845;-78
2021/08/15 05:13:56;;;;;;;15.23;4.90;;;19.80;99.90;;;;;;4865700;29;20049;-80
2021/08/15 05:16:22;;;;;;;19.73;4.53;;;19.80;99.70;;;;;;4864972;29;20049;-79
2021/08/15 05:18:48;;;;;;;19.30;4.68;;;20.00;97.90;;;;;;4875886;29;20704;-77
2021/08/15 05:21:13;;;;;;;14.27;4.50;;;20.00;99.10;;;;;;4884035;29;20523;-77
2021/08/15 05:23:39;;;;;;;18.27;5.05;;;20.00;99.60;;;;;;4875833;29;20112;-77
2021/08/15 05:26:04;;;;;;;19.45;4.45;;;20.00;99.90;;;;;;4876660;29;20127;-77
2021/08/15 05:28:30;;;;;;;14.48;4.63;;;20.10;99.90;;;;;;4876421;29;20135;-80
2021/08/15 05:30:57;;;;;;;18.05;4.82;;;20.10;99.90;;;;;;4894709;29;20095;-78
2021/08/15 05:33:23;;;;;;;18.77;4.40;;;20.20;99.90;;;;;;4884946;29;20938;-77
2021/08/15 05:35:48;;;;;;;14.73;4.30;;;20.20;99.90;;;;;;4886849;29;20119;-77
2021/08/15 05:38:14;;;;;;;16.55;4.90;;;20.30;99.90;;;;;;4878048;29;20061;-78
2021/08/15 05:40:40;;;;;;;11.07;4.05;;;20.30;99.90;;;;;;4894716;29;20373;-78
2021/08/15 05:43:05;;;;;;;13.18;4.75;;;20.50;99.90;;;;;;4894989;29;20036;-77
2021/08/15 05:45:31;;;;;;;19.98;4.53;;;20.60;99.90;;;;;;4877967;29;20080;-76
2021/08/15 05:47:57;;;;;;;20.55;4.90;;;20.70;98.40;;;;;;4878326;29;20483;-78
2021/08/15 05:50:22;;;;;;;22.70;4.20;;;20.80;97.10;;;;;;4894440;29;20043;-78
2021/08/15 05:52:48;;;;;;;16.65;4.63;;;21.00;96.00;;;;;;4894521;29;20718;-77
2021/08/15 05:55:14;;;;;;;11.48;4.07;;;21.20;97.60;;;;;;4886427;29;20047;-77
2021/08/15 05:57:40;;;;;;;15.60;4.30;;;21.30;97.80;;;;;;4886514;29;20047;-77
2021/08/15 06:00:06;;;;;;;15.43;3.88;;;21.50;98.50;;;;;;4893650;29;20075;-77
2021/08/15 06:02:33;;;;;;;14.68;4.63;;;21.50;98.50;;;;;;4894812;29;20052;-77
2021/08/15 06:04:58;;;;;;;16.88;4.07;;;21.50;98.60;;;;;;4883507;29;20048;-78
2021/08/15 06:07:24;;;;;;;18.77;4.15;;;21.70;98.10;;;;;;4894491;29;20552;-79
2021/08/15 06:09:50;;;;;;;14.73;4.40;;;21.90;97.80;;;;;;4892587;29;20511;-79
2021/08/15 06:12:15;;;;;;;13.27;4.47;;;22.10;96.30;;;;;;4875812;29;20057;-79
2021/08/15 06:14:41;;;;;;;13.95;3.90;;;22.30;95.80;;;;;;4886675;29;20071;-79
2021/08/15 06:17:07;;;;;;;16.15;4.43;;;22.30;94.00;;;;;;4895349;29;20064;-77
2021/08/15 06:19:33;;;;;;;15.43;4.32;;;22.50;94.00;;;;;;4893259;29;20137;-77
2021/08/15 06:22:00;;;;;;;16.48;5.03;;;22.80;94.70;;;;;;4892807;29;20040;-78
2021/08/15 06:24:27;;;;;;;17.17;4.95;;;22.80;93.40;;;;;;4892410;29;20124;-79
2021/08/15 06:26:53;;;;;;;13.10;3.97;;;23.10;93.00;;;;;;4897110;29;20112;-79
2021/08/15 06:29:19;;;;;;;13.38;4.00;;;23.30;91.70;;;;;;4891304;29;20056;-78
2021/08/15 06:31:44;;;;;;;13.48;4.05;;;23.20;91.90;;;;;;4874693;29;20045;-78
2021/08/15 06:34:10;;;;;;;13.85;4.00;;;23.30;91.90;;;;;;4886859;29;20084;-77
2021/08/15 06:36:36;;;;;;;12.30;4.32;;;23.40;92.10;;;;;;4891224;29;20378;-77
2021/08/15 06:39:02;;;;;;;14.43;4.38;;;23.20;92.00;;;;;;4883784;29;20532;-77
2021/08/15 06:41:27;;;;;;;17.52;4.95;;;23.50;92.60;;;;;;4895423;29;20520;-77
2021/08/15 06:43:53;;;;;;;19.70;4.88;;;23.90;93.90;;;;;;4881864;29;20053;-77
2021/08/15 06:46:18;;;;;;;14.50;5.03;;;24.20;94.40;;;;;;4890716;29;20049;-77
2021/08/15 06:48:45;;;;;;;15.90;4.95;;;24.30;93.60;;;;;;4892056;29;20052;-78
2021/08/15 06:51:12;;;;;;;14.13;4.40;;;24.60;93.20;;;;;;4887317;29;20055;-78
2021/08/15 06:53:38;;;;;;;13.55;3.72;;;24.70;92.70;;;;;;4891163;29;20032;-78
2021/08/15 06:56:06;;;;;;;19.67;5.75;;;24.80;92.00;;;;;;4885026;29;20064;-77
2021/08/15 06:58:32;;;;;;;13.77;4.25;;;25.00;91.50;;;;;;4883482;29;20508;-77
2021/08/15 07:00:58;;;;;;;16.17;4.95;;;25.30;91.30;;;;;;4895611;29;20131;-78
2021/08/15 07:03:24;;;;;;;14.70;4.25;;;25.50;91.60;;;;;;4889465;29;20112;-77
2021/08/15 07:05:50;;;;;;;12.50;4.35;;;25.60;91.50;;;;;;4890818;29;20408;-78
2021/08/15 07:08:16;;;;;;;14.45;4.88;;;25.70;91.10;;;;;;4889747;29;21045;-78
2021/08/15 07:10:42;;;;;;;19.25;4.75;;;25.90;91.10;;;;;;4894075;29;20135;-77
2021/08/15 07:13:08;;;;;;;18.05;4.32;;;26.10;90.70;;;;;;4882796;29;20127;-78
2021/08/15 07:15:34;;;;;;;17.35;4.80;;;26.20;90.30;;;;;;4881692;29;20140;-78
2021/08/15 07:18:00;;;;;;;16.13;4.07;;;26.20;90.20;;;;;;4890272;29;20047;-77
2021/08/15 07:20:27;;;;;;;11.00;4.75;;;26.40;89.90;;;;;;4890915;29;20036;-77
2021/08/15 07:22:53;;;;;;;17.00;4.63;;;26.40;89.30;;;;;;4886501;29;20120;-77
2021/08/15 07:25:19;;;;;;;14.38;4.32;;;26.60;88.20;;;;;;4893452;29;20057;-77
2021/08/15 07:27:46;;;;;;;18.65;4.70;;;26.50;89.00;;;;;;4894597;29;20488;-78
2021/08/15 07:30:12;;;;;;;16.08;4.38;;;26.60;87.10;;;;;;4902715;29;20485;-77
2021/08/15 07:32:52;;;;;;;14.02;3.80;;;26.60;86.20;;;;;;4899847;29;20377;-78
2021/08/15 07:35:19;;;;;;;18.52;4.28;;;26.60;86.10;;;;;;4894647;29;20128;-78
2021/08/15 07:37:45;;;;;;;14.60;4.15;;;26.60;85.00;;;;;;4884800;29;20046;-78
2021/08/15 07:40:11;;;;;;;17.98;5.38;;;26.70;85.20;;;;;;4889300;29;20064;-78
2021/08/15 07:42:37;;;;;;;24.13;4.55;;;26.80;85.30;;;;;;4896101;29;20048;-77
2021/08/15 07:45:03;;;;;;;16.70;4.18;;;26.60;85.10;;;;;;4895990;29;20033;-78
2021/08/15 07:47:29;;;;;;;13.70;4.18;;;26.60;86.30;;;;;;4878934;29;20100;-78
2021/08/15 07:49:54;;;;;;;21.77;4.75;;;26.70;86.00;;;;;;4870357;29;20040;-77
2021/08/15 07:52:20;;;;;;;13.93;4.63;;;26.70;87.10;;;;;;4894208;29;20900;-78
2021/08/15 07:54:46;;;;;;;15.77;4.55;;;27.00;85.80;;;;;;4896018;29;20052;-78
2021/08/15 07:57:11;;;;;;;14.10;5.03;;;26.70;85.80;;;;;;4879189;29;20076;-77
2021/08/15 07:59:37;;;;;;;14.77;4.88;;;26.40;85.80;;;;;;4884681;29;20432;-77
2021/08/15 08:02:03;;;;;;;12.00;4.25;;;26.70;86.10;;;;;;4892087;29;20060;-78
2021/08/15 08:04:28;;;;;;;20.23;4.88;;;26.50;86.20;;;;;;4899486;29;20099;-78
2021/08/15 08:06:56;;;;;;;12.75;4.45;;;26.60;86.80;;;;;;4884410;29;20532;-77
2021/08/15 08:09:22;;;;;;;17.58;4.28;;;26.60;87.60;;;;;;4894809;29;20028;-77
2021/08/15 08:11:49;;;;;;;18.13;4.63;;;26.60;88.40;;;;;;4887332;29;20041;-77
2021/08/15 08:14:15;;;;;;;18.30;4.43;;;26.30;86.90;;;;;;4891346;29;20028;-77
2021/08/15 08:16:41;;;;;;;17.55;5.20;;;26.30;86.60;;;;;;4883796;29;20044;-77
2021/08/15 08:19:07;;;;;;;16.42;4.03;;;26.10;85.40;;;;;;4896057;29;20040;-77
2021/08/15 08:21:32;;;;;;;15.60;4.78;;;26.20;86.80;;;;;;4888497;29;20045;-77
2021/08/15 08:23:58;;;;;;;23.08;4.68;;;26.40;86.70;;;;;;4870853;29;20041;-77
2021/08/15 08:26:24;;;;;;;16.42;4.40;;;26.60;88.00;;;;;;4892178;29;20088;-77
2021/08/15 08:28:49;;;;;;;17.00;4.50;;;26.60;85.60;;;;;;4895808;29;20706;-77
2021/08/15 08:31:15;;;;;;;20.25;5.55;;;26.60;85.70;;;;;;4886862;29;20876;-77
2021/08/15 08:33:41;;;;;;;13.05;3.97;;;26.70;85.80;;;;;;4895006;29;20041;-77
2021/08/15 08:36:07;;;;;;;15.98;4.32;;;26.40;86.80;;;;;;4884874;29;20037;-77
2021/08/15 08:38:32;;;;;;;17.08;4.68;;;26.70;86.80;;;;;;4894881;29;20481;-78
2021/08/15 08:40:59;;;;;;;14.85;4.57;;;26.70;85.10;;;;;;4895491;29;20049;-77
2021/08/15 08:43:26;;;;;;;15.10;4.40;;;26.80;86.00;;;;;;4894807;29;20063;-77
2021/08/15 08:45:54;;;;;;;13.70;3.85;;;26.90;86.90;;;;;;4895133;29;20127;-77
2021/08/15 08:48:19;;;;;;;15.48;4.28;;;27.20;85.50;;;;;;4897712;29;20563;-77
2021/08/15 08:50:49;;;;;;;15.90;4.63;;;27.20;84.60;;;;;;4906550;29;20251;-77
2021/08/15 08:53:15;;;;;;;18.00;4.80;;;26.90;84.20;;;;;;4893875;29;20033;-77
2021/08/15 08:55:41;;;;;;;14.23;4.22;;;27.10;85.50;;;;;;4883353;29;20049;-77
2021/08/15 08:58:08;;;;;;;15.63;4.43;;;27.20;87.20;;;;;;4879892;29;20029;-77
2021/08/15 09:00:34;;;;;;;13.45;4.80;;;27.00;86.50;;;;;;4894076;29;20048;-77
2021/08/15 09:02:59;;;;;;;12.45;4.10;;;27.10;85.90;;;;;;4893839;29;20045;-77
2021/08/15 09:05:31;;;;;;;14.15;5.03;;;27.10;85.40;;;;;;4904141;29;20524;-78
2021/08/15 09:07:57;;;;;;;;;;;27.30;85.40;;;;;;4880767;29;20056;-77
2021/08/15 09:10:29;;;;;;;18.80;4.47;;;27.70;85.40;;;;;;4889236;29;20359;-77
2021/08/15 09:13:01;;;;;;;13.75;4.57;;;28.00;85.50;;;;;;4895046;29;20041;-77
2021/08/15 09:15:27;;;;;;;12.85;4.28;;;28.10;84.80;;;;;;4891647;29;20048;-78
2021/08/15 09:17:54;;;;;;;15.40;4.40;;;28.20;84.70;;;;;;4893367;29;20040;-78
2021/08/15 09:20:42;;;;;;;14.57;4.22;;;28.50;84.60;;;;;;4886056;29;20037;-77
2021/08/15 09:23:34;;;;;;;15.75;4.18;;;28.50;83.30;;;;;;4883906;29;20643;-77
2021/08/15 09:26:12;;;;;;;14.30;4.57;;;28.40;84.10;;;;;;4889612;29;20048;-77
2021/08/15 09:28:38;;;;;;;14.90;4.78;;;28.80;84.20;;;;;;4876633;29;20049;-77
2021/08/15 09:31:28;;;;;;;18.92;4.82;;;29.00;82.90;;;;;;4876178;29;20049;-77
2021/08/15 09:33:55;;;;;;;19.27;4.18;;;29.10;82.50;;;;;;4860939;29;20051;-77
2021/08/15 09:36:25;;;;;;;13.27;4.60;;;28.90;81.40;;;;;;4866554;29;20053;-78
2021/08/15 09:38:58;;;;;;;18.38;5.22;;;28.80;81.60;;;;;;4877849;29;20040;-77
2021/08/15 09:41:26;;;;;;;14.73;4.80;;;29.10;82.20;;;;;;4883590;29;20045;-77
2021/08/15 09:44:24;;;;;;;16.67;4.63;;;29.30;83.00;;;;;;4873674;29;20090;-78
2021/08/15 09:47:12;;;;;;;17.92;3.88;;;29.60;81.70;;;;;;4861324;29;20174;-78
2021/08/15 09:49:41;;;;;;;14.63;4.20;;;29.80;80.60;;;;;;4888290;29;20068;-78
2021/08/15 09:52:09;;;;;;;18.42;4.43;;;29.80;79.60;;;;;;4880351;29;20092;-78
2021/08/15 09:54:37;;;;;;;15.18;4.35;;;29.80;80.60;;;;;;4847525;29;20391;-77
2021/08/15 09:57:06;;;;;;;12.13;4.32;;;30.10;80.30;;;;;;4873895;29;20537;-78
2021/08/15 09:59:35;;;;;;;16.92;4.70;;;30.20;79.80;;;;;;4869489;29;20120;-78
2021/08/15 10:02:01;;;;;;;15.63;4.25;;;30.40;79.60;;;;;;4871341;29;20052;-78
2021/08/15 10:04:27;;;;;;;16.23;4.32;;;30.50;80.10;;;;;;4883508;29;20043;-78
2021/08/15 10:06:56;;;;;;;18.20;4.70;;;30.60;79.30;;;;;;4869497;29;20116;-78
2021/08/15 10:09:23;;;;;;;23.88;5.00;;;30.10;79.20;;;;;;4884083;29;20033;-77
2021/08/15 10:11:50;;;;;;;19.48;5.18;;;30.00;80.00;;;;;;4851150;29;20403;-77
2021/08/15 10:14:16;;;;;;;21.60;5.25;;;30.20;81.60;;;;;;4885618;29;20510;-78
2021/08/15 10:16:55;;;;;;;21.30;4.93;;;30.40;82.10;;;;;;4869494;29;20129;-78
2021/08/15 10:20:00;;;;;;;19.42;5.32;;;30.30;82.40;;;;;;4881258;29;20373;-77
2021/08/15 10:22:33;;;;;;;18.23;5.30;;;30.50;82.60;;;;;;4870204;29;20061;-79
2021/08/15 10:25:04;;;;;;;14.23;4.78;;;30.80;82.40;;;;;;4871582;29;20041;-77
2021/08/15 10:27:41;;;;;;;19.10;5.15;;;30.60;82.10;;;;;;4874614;29;20053;-76
2021/08/15 10:30:30;;;;;;;16.85;4.85;;;30.80;82.50;;;;;;4889157;29;20052;-77
2021/08/15 10:32:55;;;;;;;16.08;4.78;;;31.00;82.70;;;;;;4886830;29;20101;-77
2021/08/15 10:35:31;;;;;;;25.48;5.03;;;31.40;83.90;;;;;;4886006;29;20045;-77
2021/08/15 10:38:15;;;;;;;26.20;5.25;;;31.30;82.10;;;;;;4892946;29;20036;-77
2021/08/15 10:40:41;;;;;;;22.58;5.55;;;31.20;82.10;;;;;;4888189;29;20454;-77
2021/08/15 10:43:14;;;;;;;21.23;5.65;;;30.80;83.50;;;;;;4891987;29;20112;-77
2021/08/15 10:45:40;;;;;;;18.08;4.82;;;31.10;84.30;;;;;;4894123;29;20526;-77
2021/08/15 10:48:09;;;;;;;20.23;5.47;;;31.30;84.10;;;;;;4872940;29;20421;-77
2021/08/15 10:50:55;;;;;;;29.27;5.70;;;31.40;84.90;;;;;;4896377;29;20047;-78
2021/08/15 10:53:30;;;;;;;21.38;5.70;;;31.60;84.50;;;;;;4866831;29;20048;-77
2021/08/15 10:55:58;;;;;;;15.55;5.03;;;31.90;84.10;;;;;;4893857;29;20380;-77
2021/08/15 10:58:37;;;;;;;23.55;5.32;;;31.70;83.10;;;;;;4863529;29;20048;-77
2021/08/15 11:01:13;;;;;;;17.75;5.70;;;31.60;84.30;;;;;;4893875;29;20048;-77
2021/08/15 11:03:46;;;;;;;20.40;5.72;;;31.90;84.60;;;;;;4872237;29;20508;-77
2021/08/15 11:06:46;;;;;;;22.65;6.85;;;32.00;84.50;;;;;;4894106;29;20059;-77
2021/08/15 11:09:13;;;;;;;19.98;6.10;;;31.90;84.90;;;;;;4849629;29;20407;-77
2021/08/15 11:12:10;;;;;;;22.27;5.55;;;32.10;84.40;;;;;;4894099;29;20043;-77
2021/08/15 11:14:36;;;;;;;21.00;5.90;;;32.30;84.60;;;;;;4889261;29;20041;-77
2021/08/15 11:17:15;;;;;;;20.40;5.22;;;32.10;84.10;;;;;;4897156;29;20080;-77
2021/08/15 11:19:41;;;;;;;19.73;5.00;;;31.90;85.10;;;;;;4892450;29;20042;-77
2021/08/15 11:22:10;;;;;;;23.75;6.00;;;31.80;84.90;;;;;;4891931;29;20445;-77
2021/08/15 11:24:37;;;;;;;16.92;5.63;;;31.70;85.10;;;;;;4883553;29;20045;-77
2021/08/15 11:27:03;;;;;;;25.02;5.82;;;31.70;83.70;;;;;;4895888;29;20049;-77
2021/08/15 11:29:29;;;;;;;19.08;5.45;;;31.70;84.50;;;;;;4887187;29;20040;-76
2021/08/15 11:31:56;;;;;;;18.05;5.63;;;31.90;86.70;;;;;;4897821;29;20408;-77
2021/08/15 11:34:22;;;;;;;23.42;5.63;;;32.00;85.30;;;;;;4885502;29;20043;-77
2021/08/15 11:37:03;;;;;;;23.55;6.65;;;32.10;87.20;;;;;;4909960;29;20048;-77
2021/08/15 11:39:39;;;;;;;19.70;5.33;;;32.00;86.10;;;;;;4888485;29;20041;-77
2021/08/15 11:42:14;;;;;;;31.42;9.20;;;32.10;87.00;;;;;;4886915;29;20061;-77
2021/08/15 11:45:00;;;;;;;18.13;5.97;;;32.10;86.20;;;;;;4888857;29;20102;-77
2021/08/15 11:47:32;;;;;;;20.60;5.82;;;32.50;87.50;;;;;;4876492;29;20048;-78
2021/08/15 11:50:25;;;;;;;19.92;7.38;;;32.60;85.10;;;;;;4892557;29;20046;-77
2021/08/15 11:52:51;;;;;;;28.48;6.55;;;32.30;83.70;;;;;;4876289;29;20072;-77
2021/08/15 11:55:23;;;;;;;25.08;7.40;;;31.50;85.40;;;;;;4886072;29;20476;-77
2021/08/15 11:57:51;;;;;;;20.17;6.28;;;31.90;87.20;;;;;;4896069;29;20527;-77
2021/08/15 12:00:25;;;;;;;21.60;5.88;;;31.70;86.50;;;;;;4896240;29;20044;-77
2021/08/15 12:03:20;;;;;;;24.42;5.20;;;31.60;86.60;;;;;;4883180;29;20488;-77
2021/08/15 12:06:01;;;;;;;22.20;6.80;;;31.50;87.10;;;;;;4864505;29;20072;-77
2021/08/15 12:08:36;;;;;;;22.98;5.70;;;31.40;87.70;;;;;;4895531;29;20043;-77
2021/08/15 12:11:03;;;;;;;21.75;5.80;;;31.70;89.50;;;;;;4893569;29;20048;-77
2021/08/15 12:13:36;;;;;;;20.33;6.07;;;31.70;88.10;;;;;;4894738;29;20396;-77
2021/08/15 12:16:02;;;;;;;22.88;6.53;;;31.70;88.60;;;;;;4886283;29;20120;-77
2021/08/15 12:18:38;;;;;;;19.40;6.13;;;31.60;89.20;;;;;;4887370;29;20120;-77
2021/08/15 12:21:16;;;;;;;21.60;6.68;;;31.70;89.50;;;;;;4885990;29;20147;-77
2021/08/15 12:24:05;;;;;;;22.58;6.55;;;31.80;89.60;;;;;;4891803;29;20056;-77
2021/08/15 12:26:50;;;;;;;28.70;7.30;;;31.90;89.30;;;;;;4894974;29;20054;-77
2021/08/15 12:29:18;;;;;;;24.52;8.43;;;32.00;89.00;;;;;;4895162;29;20143;-77
2021/08/15 12:31:45;;;;;;;27.20;7.20;;;31.90;88.90;;;;;;4882125;29;20409;-77
2021/08/15 12:34:20;;;;;;;25.17;6.90;;;32.10;90.10;;;;;;4896544;29;20104;-77
2021/08/15 12:36:51;;;;;;;22.42;7.30;;;32.10;89.40;;;;;;4885892;29;20045;-77
2021/08/15 12:39:25;;;;;;;21.85;6.25;;;31.90;89.70;;;;;;4892726;29;20045;-77
2021/08/15 12:41:50;;;;;;;20.00;6.28;;;31.80;89.90;;;;;;4891419;29;20040;-77
2021/08/15 12:44:22;;;;;;;23.17;6.60;;;31.80;90.50;;;;;;4888335;29;20121;-77